sensor_id;sensor_type;location;lat;lon;timestamp;temperature;humidity
14705;DHT22;7442;50.840;3.396;2022-07-23T00:00:44;26.10;51.90
14705;DHT22;7442;50.840;3.396;2022-07-23T00:03:32;26.00;52.00
14705;DHT22;7442;50.840;3.396;2022-07-23T00:06:20;26.10;52.20
14705;DHT22;7442;50.840;3.396;2022-07-23T00:09:06;26.00;52.10
14705;DHT22;7442;50.840;3.396;2022-07-23T00:11:56;26.10;52.00
14705;DHT22;7442;50.840;3.396;2022-07-23T00:14:43;26.20;51.80
14705;DHT22;7442;50.840;3.396;2022-07-23T00:17:30;26.20;51.70
14705;DHT22;7442;50.840;3.396;2022-07-23T00:20:16;26.20;51.60
14705;DHT22;7442;50.840;3.396;2022-07-23T00:23:02;26.30;51.50
14705;DHT22;7442;50.840;3.396;2022-07-23T00:25:48;26.20;51.50
14705;DHT22;7442;50.840;3.396;2022-07-23T00:28:35;26.30;51.40
14705;DHT22;7442;50.840;3.396;2022-07-23T00:31:23;26.30;51.40
14705;DHT22;7442;50.840;3.396;2022-07-23T00:34:10;26.30;51.40
14705;DHT22;7442;50.840;3.396;2022-07-23T00:36:56;26.30;51.30
14705;DHT22;7442;50.840;3.396;2022-07-23T00:39:42;26.30;51.30
14705;DHT22;7442;50.840;3.396;2022-07-23T00:42:28;26.20;51.30
14705;DHT22;7442;50.840;3.396;2022-07-23T00:45:14;26.20;51.30
14705;DHT22;7442;50.840;3.396;2022-07-23T00:48:01;26.20;51.30
14705;DHT22;7442;50.840;3.396;2022-07-23T00:50:47;26.30;51.30
14705;DHT22;7442;50.840;3.396;2022-07-23T00:53:33;26.20;51.20
14705;DHT22;7442;50.840;3.396;2022-07-23T00:56:20;26.20;51.20
14705;DHT22;7442;50.840;3.396;2022-07-23T00:59:09;26.20;51.20
14705;DHT22;7442;50.840;3.396;2022-07-23T01:01:55;26.10;51.30
14705;DHT22;7442;50.840;3.396;2022-07-23T01:04:43;26.10;51.40
14705;DHT22;7442;50.840;3.396;2022-07-23T01:07:30;26.20;51.30
14705;DHT22;7442;50.840;3.396;2022-07-23T01:10:18;26.20;51.20
14705;DHT22;7442;50.840;3.396;2022-07-23T01:13:17;26.10;51.20
14705;DHT22;7442;50.840;3.396;2022-07-23T01:16:04;26.10;51.30
14705;DHT22;7442;50.840;3.396;2022-07-23T01:18:51;26.10;51.30
14705;DHT22;7442;50.840;3.396;2022-07-23T01:21:40;26.00;51.40
14705;DHT22;7442;50.840;3.396;2022-07-23T01:24:26;26.00;51.70
14705;DHT22;7442;50.840;3.396;2022-07-23T01:27:12;26.00;51.70
14705;DHT22;7442;50.840;3.396;2022-07-23T01:30:00;26.00;51.70
14705;DHT22;7442;50.840;3.396;2022-07-23T01:32:47;26.00;51.50
14705;DHT22;7442;50.840;3.396;2022-07-23T01:35:33;26.10;51.40
14705;DHT22;7442;50.840;3.396;2022-07-23T01:38:26;26.10;51.30
14705;DHT22;7442;50.840;3.396;2022-07-23T01:41:13;26.10;51.20
14705;DHT22;7442;50.840;3.396;2022-07-23T01:44:03;26.20;51.30
14705;DHT22;7442;50.840;3.396;2022-07-23T01:46:56;26.10;51.00
14705;DHT22;7442;50.840;3.396;2022-07-23T01:49:42;26.20;51.00
14705;DHT22;7442;50.840;3.396;2022-07-23T01:52:28;26.20;50.90
14705;DHT22;7442;50.840;3.396;2022-07-23T01:55:15;26.10;50.90
14705;DHT22;7442;50.840;3.396;2022-07-23T01:58:02;26.10;50.90
14705;DHT22;7442;50.840;3.396;2022-07-23T02:00:48;26.10;51.10
14705;DHT22;7442;50.840;3.396;2022-07-23T02:03:34;25.90;51.30
14705;DHT22;7442;50.840;3.396;2022-07-23T02:06:21;25.90;51.40
14705;DHT22;7442;50.840;3.396;2022-07-23T02:09:07;25.90;51.50
14705;DHT22;7442;50.840;3.396;2022-07-23T02:11:53;25.90;51.30
14705;DHT22;7442;50.840;3.396;2022-07-23T02:14:40;25.90;51.30
14705;DHT22;7442;50.840;3.396;2022-07-23T02:17:28;26.00;51.20
14705;DHT22;7442;50.840;3.396;2022-07-23T02:20:14;25.90;51.20
14705;DHT22;7442;50.840;3.396;2022-07-23T02:23:06;25.90;51.20
14705;DHT22;7442;50.840;3.396;2022-07-23T02:25:53;25.90;51.20
14705;DHT22;7442;50.840;3.396;2022-07-23T02:28:39;25.90;51.30
14705;DHT22;7442;50.840;3.396;2022-07-23T02:31:25;25.90;51.20
14705;DHT22;7442;50.840;3.396;2022-07-23T02:34:12;25.90;51.30
14705;DHT22;7442;50.840;3.396;2022-07-23T02:36:58;25.90;51.10
14705;DHT22;7442;50.840;3.396;2022-07-23T02:39:44;26.00;51.10
14705;DHT22;7442;50.840;3.396;2022-07-23T02:42:30;26.00;50.90
14705;DHT22;7442;50.840;3.396;2022-07-23T02:45:17;26.00;50.90
14705;DHT22;7442;50.840;3.396;2022-07-23T02:48:05;26.00;50.90
14705;DHT22;7442;50.840;3.396;2022-07-23T02:50:51;26.00;50.90
14705;DHT22;7442;50.840;3.396;2022-07-23T02:53:38;26.00;50.90
14705;DHT22;7442;50.840;3.396;2022-07-23T02:56:24;26.00;50.90
14705;DHT22;7442;50.840;3.396;2022-07-23T02:59:11;25.90;50.80
14705;DHT22;7442;50.840;3.396;2022-07-23T03:01:57;25.90;50.90
14705;DHT22;7442;50.840;3.396;2022-07-23T03:04:43;25.90;51.00
14705;DHT22;7442;50.840;3.396;2022-07-23T03:07:29;25.90;50.90
14705;DHT22;7442;50.840;3.396;2022-07-23T03:10:16;25.90;51.00
14705;DHT22;7442;50.840;3.396;2022-07-23T03:13:02;25.90;50.90
14705;DHT22;7442;50.840;3.396;2022-07-23T03:15:50;25.80;51.00
14705;DHT22;7442;50.840;3.396;2022-07-23T03:18:43;25.80;51.20
14705;DHT22;7442;50.840;3.396;2022-07-23T03:21:29;25.70;51.20
14705;DHT22;7442;50.840;3.396;2022-07-23T03:24:16;25.70;51.30
14705;DHT22;7442;50.840;3.396;2022-07-23T03:27:05;25.70;51.30
14705;DHT22;7442;50.840;3.396;2022-07-23T03:29:53;25.70;51.30
14705;DHT22;7442;50.840;3.396;2022-07-23T03:32:39;25.70;51.30
14705;DHT22;7442;50.840;3.396;2022-07-23T03:35:26;25.80;51.20
14705;DHT22;7442;50.840;3.396;2022-07-23T03:38:12;25.80;51.00
14705;DHT22;7442;50.840;3.396;2022-07-23T03:40:59;25.80;51.00
14705;DHT22;7442;50.840;3.396;2022-07-23T03:43:45;25.80;51.00
14705;DHT22;7442;50.840;3.396;2022-07-23T03:46:31;25.80;50.90
14705;DHT22;7442;50.840;3.396;2022-07-23T03:49:17;25.80;50.80
14705;DHT22;7442;50.840;3.396;2022-07-23T03:52:06;25.80;50.80
14705;DHT22;7442;50.840;3.396;2022-07-23T03:54:52;25.80;50.80
14705;DHT22;7442;50.840;3.396;2022-07-23T03:57:38;25.80;50.80
14705;DHT22;7442;50.840;3.396;2022-07-23T04:00:26;25.80;50.80
14705;DHT22;7442;50.840;3.396;2022-07-23T04:03:13;25.70;50.80
14705;DHT22;7442;50.840;3.396;2022-07-23T04:05:59;25.70;50.90
14705;DHT22;7442;50.840;3.396;2022-07-23T04:08:52;25.70;50.90
14705;DHT22;7442;50.840;3.396;2022-07-23T04:11:39;25.70;50.90
14705;DHT22;7442;50.840;3.396;2022-07-23T04:14:25;25.60;50.90
14705;DHT22;7442;50.840;3.396;2022-07-23T04:17:12;25.70;51.00
14705;DHT22;7442;50.840;3.396;2022-07-23T04:20:00;25.60;51.00
14705;DHT22;7442;50.840;3.396;2022-07-23T04:22:46;25.60;51.00
14705;DHT22;7442;50.840;3.396;2022-07-23T04:25:33;25.50;51.10
14705;DHT22;7442;50.840;3.396;2022-07-23T04:28:21;25.50;51.10
14705;DHT22;7442;50.840;3.396;2022-07-23T04:31:07;25.60;51.10
14705;DHT22;7442;50.840;3.396;2022-07-23T04:33:53;25.60;51.10
14705;DHT22;7442;50.840;3.396;2022-07-23T04:36:40;25.60;51.00
14705;DHT22;7442;50.840;3.396;2022-07-23T04:39:28;25.60;50.90
14705;DHT22;7442;50.840;3.396;2022-07-23T04:42:14;25.60;50.90
14705;DHT22;7442;50.840;3.396;2022-07-23T04:45:00;25.70;50.80
14705;DHT22;7442;50.840;3.396;2022-07-23T04:47:46;25.70;50.80
14705;DHT22;7442;50.840;3.396;2022-07-23T04:50:33;25.70;50.70
14705;DHT22;7442;50.840;3.396;2022-07-23T04:53:21;25.70;50.70
14705;DHT22;7442;50.840;3.396;2022-07-23T04:56:08;25.70;50.70
14705;DHT22;7442;50.840;3.396;2022-07-23T04:58:54;25.70;50.80
14705;DHT22;7442;50.840;3.396;2022-07-23T05:01:41;25.60;50.70
14705;DHT22;7442;50.840;3.396;2022-07-23T05:04:27;25.60;50.80
14705;DHT22;7442;50.840;3.396;2022-07-23T05:07:13;25.60;50.90
14705;DHT22;7442;50.840;3.396;2022-07-23T05:10:00;25.60;50.70
14705;DHT22;7442;50.840;3.396;2022-07-23T05:12:48;25.70;50.80
14705;DHT22;7442;50.840;3.396;2022-07-23T05:15:34;25.70;50.60
14705;DHT22;7442;50.840;3.396;2022-07-23T05:18:22;25.70;50.60
14705;DHT22;7442;50.840;3.396;2022-07-23T05:21:08;25.60;50.60
14705;DHT22;7442;50.840;3.396;2022-07-23T05:23:54;25.70;50.70
14705;DHT22;7442;50.840;3.396;2022-07-23T05:26:41;25.60;50.70
14705;DHT22;7442;50.840;3.396;2022-07-23T05:29:27;25.60;50.60
14705;DHT22;7442;50.840;3.396;2022-07-23T05:32:14;25.60;50.60
14705;DHT22;7442;50.840;3.396;2022-07-23T05:35:00;25.70;50.70
14705;DHT22;7442;50.840;3.396;2022-07-23T05:37:48;25.60;50.60
14705;DHT22;7442;50.840;3.396;2022-07-23T05:40:34;25.60;50.70
14705;DHT22;7442;50.840;3.396;2022-07-23T05:43:21;25.60;50.70
14705;DHT22;7442;50.840;3.396;2022-07-23T05:46:07;25.60;50.70
14705;DHT22;7442;50.840;3.396;2022-07-23T05:48:54;25.70;50.60
14705;DHT22;7442;50.840;3.396;2022-07-23T05:51:40;25.70;50.50
14705;DHT22;7442;50.840;3.396;2022-07-23T05:54:27;25.70;50.40
14705;DHT22;7442;50.840;3.396;2022-07-23T05:57:15;25.70;50.40
14705;DHT22;7442;50.840;3.396;2022-07-23T06:00:04;25.70;50.50
14705;DHT22;7442;50.840;3.396;2022-07-23T06:02:50;25.70;50.50
14705;DHT22;7442;50.840;3.396;2022-07-23T06:05:37;25.70;50.50
14705;DHT22;7442;50.840;3.396;2022-07-23T06:08:23;25.70;50.40
14705;DHT22;7442;50.840;3.396;2022-07-23T06:11:10;25.80;50.50
14705;DHT22;7442;50.840;3.396;2022-07-23T06:13:57;25.80;50.40
14705;DHT22;7442;50.840;3.396;2022-07-23T06:16:43;25.90;50.20
14705;DHT22;7442;50.840;3.396;2022-07-23T06:19:29;26.00;50.00
14705;DHT22;7442;50.840;3.396;2022-07-23T06:22:16;26.00;50.10
14705;DHT22;7442;50.840;3.396;2022-07-23T06:25:02;26.00;50.00
14705;DHT22;7442;50.840;3.396;2022-07-23T06:27:49;26.00;49.90
14705;DHT22;7442;50.840;3.396;2022-07-23T06:30:35;26.00;49.90
14705;DHT22;7442;50.840;3.396;2022-07-23T06:33:22;26.00;49.90
14705;DHT22;7442;50.840;3.396;2022-07-23T06:36:08;26.00;49.90
14705;DHT22;7442;50.840;3.396;2022-07-23T06:38:59;26.00;50.00
14705;DHT22;7442;50.840;3.396;2022-07-23T06:41:47;26.00;50.10
14705;DHT22;7442;50.840;3.396;2022-07-23T06:44:35;26.00;50.20
14705;DHT22;7442;50.840;3.396;2022-07-23T06:47:29;26.00;50.10
14705;DHT22;7442;50.840;3.396;2022-07-23T06:50:16;26.10;50.00
14705;DHT22;7442;50.840;3.396;2022-07-23T06:53:02;26.20;50.00
14705;DHT22;7442;50.840;3.396;2022-07-23T06:55:50;26.20;49.90
14705;DHT22;7442;50.840;3.396;2022-07-23T06:58:36;26.30;49.90
14705;DHT22;7442;50.840;3.396;2022-07-23T07:01:22;26.30;49.70
14705;DHT22;7442;50.840;3.396;2022-07-23T07:04:10;26.40;49.70
14705;DHT22;7442;50.840;3.396;2022-07-23T07:06:57;26.30;49.80
14705;DHT22;7442;50.840;3.396;2022-07-23T07:09:43;26.30;49.80
14705;DHT22;7442;50.840;3.396;2022-07-23T07:12:32;26.30;49.70
14705;DHT22;7442;50.840;3.396;2022-07-23T07:15:18;26.40;49.60
14705;DHT22;7442;50.840;3.396;2022-07-23T07:18:06;26.40;49.70
14705;DHT22;7442;50.840;3.396;2022-07-23T07:20:53;26.40;49.70
14705;DHT22;7442;50.840;3.396;2022-07-23T07:23:41;26.40;50.40
14705;DHT22;7442;50.840;3.396;2022-07-23T07:26:27;26.40;49.70
14705;DHT22;7442;50.840;3.396;2022-07-23T07:29:14;26.40;49.70
14705;DHT22;7442;50.840;3.396;2022-07-23T07:32:01;26.40;49.80
14705;DHT22;7442;50.840;3.396;2022-07-23T07:34:47;26.50;49.80
14705;DHT22;7442;50.840;3.396;2022-07-23T07:37:37;26.50;49.60
14705;DHT22;7442;50.840;3.396;2022-07-23T07:40:24;26.60;49.50
14705;DHT22;7442;50.840;3.396;2022-07-23T07:43:11;26.70;49.30
14705;DHT22;7442;50.840;3.396;2022-07-23T07:45:56;26.70;49.10
14705;DHT22;7442;50.840;3.396;2022-07-23T07:48:42;26.70;49.10
14705;DHT22;7442;50.840;3.396;2022-07-23T07:51:29;26.70;49.60
14705;DHT22;7442;50.840;3.396;2022-07-23T07:54:15;26.70;49.20
14705;DHT22;7442;50.840;3.396;2022-07-23T07:57:02;26.70;49.10
14705;DHT22;7442;50.840;3.396;2022-07-23T07:59:49;26.70;49.10
14705;DHT22;7442;50.840;3.396;2022-07-23T08:02:46;26.70;49.10
14705;DHT22;7442;50.840;3.396;2022-07-23T08:05:33;26.70;49.10
14705;DHT22;7442;50.840;3.396;2022-07-23T08:08:20;26.70;49.10
14705;DHT22;7442;50.840;3.396;2022-07-23T08:11:06;26.80;49.10
14705;DHT22;7442;50.840;3.396;2022-07-23T08:13:52;26.70;49.20
14705;DHT22;7442;50.840;3.396;2022-07-23T08:16:38;26.70;49.80
14705;DHT22;7442;50.840;3.396;2022-07-23T08:19:25;26.70;49.20
14705;DHT22;7442;50.840;3.396;2022-07-23T08:22:16;26.70;49.20
14705;DHT22;7442;50.840;3.396;2022-07-23T08:25:04;26.70;49.20
14705;DHT22;7442;50.840;3.396;2022-07-23T08:27:50;26.70;49.20
14705;DHT22;7442;50.840;3.396;2022-07-23T08:30:38;26.70;49.20
14705;DHT22;7442;50.840;3.396;2022-07-23T08:33:24;26.80;49.10
14705;DHT22;7442;50.840;3.396;2022-07-23T08:36:11;26.80;49.10
14705;DHT22;7442;50.840;3.396;2022-07-23T08:38:58;26.80;49.10
14705;DHT22;7442;50.840;3.396;2022-07-23T08:41:45;26.80;49.10
14705;DHT22;7442;50.840;3.396;2022-07-23T08:44:35;26.80;49.10
14705;DHT22;7442;50.840;3.396;2022-07-23T08:47:21;26.90;49.10
14705;DHT22;7442;50.840;3.396;2022-07-23T08:50:08;26.90;49.00
14705;DHT22;7442;50.840;3.396;2022-07-23T08:52:56;27.00;48.90
14705;DHT22;7442;50.840;3.396;2022-07-23T08:55:45;27.10;48.90
14705;DHT22;7442;50.840;3.396;2022-07-23T08:58:32;27.20;48.90
14705;DHT22;7442;50.840;3.396;2022-07-23T09:01:19;27.20;48.70
14705;DHT22;7442;50.840;3.396;2022-07-23T09:04:05;27.20;48.60
14705;DHT22;7442;50.840;3.396;2022-07-23T09:06:52;27.30;48.50
14705;DHT22;7442;50.840;3.396;2022-07-23T09:09:38;27.40;48.60
14705;DHT22;7442;50.840;3.396;2022-07-23T09:12:26;27.40;48.50
14705;DHT22;7442;50.840;3.396;2022-07-23T09:15:12;27.40;48.50
14705;DHT22;7442;50.840;3.396;2022-07-23T09:17:59;27.50;48.30
14705;DHT22;7442;50.840;3.396;2022-07-23T09:20:45;27.50;48.30
14705;DHT22;7442;50.840;3.396;2022-07-23T09:23:44;27.60;48.20
14705;DHT22;7442;50.840;3.396;2022-07-23T09:29:25;27.60;48.10
14705;DHT22;7442;50.840;3.396;2022-07-23T09:32:13;27.60;48.10
14705;DHT22;7442;50.840;3.396;2022-07-23T09:35:00;27.70;47.90
14705;DHT22;7442;50.840;3.396;2022-07-23T09:38:00;27.70;47.80
14705;DHT22;7442;50.840;3.396;2022-07-23T09:40:35;27.80;47.80
14705;DHT22;7442;50.840;3.396;2022-07-23T09:43:28;27.80;47.60
14705;DHT22;7442;50.840;3.396;2022-07-23T09:46:23;27.90;47.70
14705;DHT22;7442;50.840;3.396;2022-07-23T09:49:18;27.80;47.70
14705;DHT22;7442;50.840;3.396;2022-07-23T09:52:06;27.90;47.80
14705;DHT22;7442;50.840;3.396;2022-07-23T09:55:00;27.90;47.60
14705;DHT22;7442;50.840;3.396;2022-07-23T09:57:47;27.90;47.50
14705;DHT22;7442;50.840;3.396;2022-07-23T10:00:38;28.00;47.60
14705;DHT22;7442;50.840;3.396;2022-07-23T10:03:25;28.00;47.40
14705;DHT22;7442;50.840;3.396;2022-07-23T10:06:13;28.10;47.30
14705;DHT22;7442;50.840;3.396;2022-07-23T10:09:02;28.10;47.30
14705;DHT22;7442;50.840;3.396;2022-07-23T10:11:48;28.10;47.20
14705;DHT22;7442;50.840;3.396;2022-07-23T10:14:38;28.10;47.30
14705;DHT22;7442;50.840;3.396;2022-07-23T10:17:25;28.10;47.30
14705;DHT22;7442;50.840;3.396;2022-07-23T10:20:12;28.10;47.10
14705;DHT22;7442;50.840;3.396;2022-07-23T10:23:17;28.10;47.10
14705;DHT22;7442;50.840;3.396;2022-07-23T10:32:23;28.20;46.90
14705;DHT22;7442;50.840;3.396;2022-07-23T10:41:04;28.10;47.20
14705;DHT22;7442;50.840;3.396;2022-07-23T10:44:12;28.10;47.20
14705;DHT22;7442;50.840;3.396;2022-07-23T10:47:02;28.20;47.20
14705;DHT22;7442;50.840;3.396;2022-07-23T10:50:26;28.20;47.20
14705;DHT22;7442;50.840;3.396;2022-07-23T10:53:17;28.20;47.10
14705;DHT22;7442;50.840;3.396;2022-07-23T10:56:04;28.20;47.00
14705;DHT22;7442;50.840;3.396;2022-07-23T10:58:50;28.30;47.00
14705;DHT22;7442;50.840;3.396;2022-07-23T11:01:40;28.30;46.90
14705;DHT22;7442;50.840;3.396;2022-07-23T11:04:50;28.30;47.00
14705;DHT22;7442;50.840;3.396;2022-07-23T11:10:49;28.30;47.10
14705;DHT22;7442;50.840;3.396;2022-07-23T11:13:41;28.30;47.10
14705;DHT22;7442;50.840;3.396;2022-07-23T11:16:29;28.30;47.10
14705;DHT22;7442;50.840;3.396;2022-07-23T11:19:16;28.20;47.10
14705;DHT22;7442;50.840;3.396;2022-07-23T11:22:02;28.20;47.20
14705;DHT22;7442;50.840;3.396;2022-07-23T11:24:54;28.20;47.20
14705;DHT22;7442;50.840;3.396;2022-07-23T11:27:46;28.20;47.30
14705;DHT22;7442;50.840;3.396;2022-07-23T11:33:22;28.10;47.30
14705;DHT22;7442;50.840;3.396;2022-07-23T11:36:09;28.10;47.50
14705;DHT22;7442;50.840;3.396;2022-07-23T11:38:55;28.10;47.50
14705;DHT22;7442;50.840;3.396;2022-07-23T11:41:44;28.20;47.50
14705;DHT22;7442;50.840;3.396;2022-07-23T11:44:33;28.10;47.50
14705;DHT22;7442;50.840;3.396;2022-07-23T11:47:25;28.20;47.60
14705;DHT22;7442;50.840;3.396;2022-07-23T11:50:18;28.20;47.60
14705;DHT22;7442;50.840;3.396;2022-07-23T11:53:07;28.20;47.50
14705;DHT22;7442;50.840;3.396;2022-07-23T11:56:08;28.20;47.60
14705;DHT22;7442;50.840;3.396;2022-07-23T11:58:55;28.20;47.60
14705;DHT22;7442;50.840;3.396;2022-07-23T12:04:46;28.20;47.70
14705;DHT22;7442;50.840;3.396;2022-07-23T12:07:35;28.20;47.80
14705;DHT22;7442;50.840;3.396;2022-07-23T12:10:25;28.20;47.80
14705;DHT22;7442;50.840;3.396;2022-07-23T12:13:15;28.20;47.80
14705;DHT22;7442;50.840;3.396;2022-07-23T12:16:02;28.10;47.90
14705;DHT22;7442;50.840;3.396;2022-07-23T12:18:50;28.20;47.90
14705;DHT22;7442;50.840;3.396;2022-07-23T12:21:37;28.20;47.90
14705;DHT22;7442;50.840;3.396;2022-07-23T12:24:24;28.20;48.00
14705;DHT22;7442;50.840;3.396;2022-07-23T12:27:12;28.10;48.00
14705;DHT22;7442;50.840;3.396;2022-07-23T12:30:20;28.10;48.10
14705;DHT22;7442;50.840;3.396;2022-07-23T12:33:09;28.10;48.10
14705;DHT22;7442;50.840;3.396;2022-07-23T12:35:57;28.10;48.20
14705;DHT22;7442;50.840;3.396;2022-07-23T12:38:47;28.10;48.20
14705;DHT22;7442;50.840;3.396;2022-07-23T12:41:51;28.20;48.20
14705;DHT22;7442;50.840;3.396;2022-07-23T12:44:37;28.20;48.30
14705;DHT22;7442;50.840;3.396;2022-07-23T12:47:24;28.20;48.00
14705;DHT22;7442;50.840;3.396;2022-07-23T12:50:30;28.10;48.10
14705;DHT22;7442;50.840;3.396;2022-07-23T12:53:07;28.10;48.20
14705;DHT22;7442;50.840;3.396;2022-07-23T12:56:12;28.20;48.20
14705;DHT22;7442;50.840;3.396;2022-07-23T13:01:56;28.20;48.10
14705;DHT22;7442;50.840;3.396;2022-07-23T13:04:46;28.30;48.10
14705;DHT22;7442;50.840;3.396;2022-07-23T13:07:32;28.30;48.00
14705;DHT22;7442;50.840;3.396;2022-07-23T13:10:19;28.40;48.00
14705;DHT22;7442;50.840;3.396;2022-07-23T13:13:10;28.40;47.90
14705;DHT22;7442;50.840;3.396;2022-07-23T13:15:58;28.40;47.80
14705;DHT22;7442;50.840;3.396;2022-07-23T13:18:45;28.30;48.00
14705;DHT22;7442;50.840;3.396;2022-07-23T13:21:31;28.20;48.10
14705;DHT22;7442;50.840;3.396;2022-07-23T13:24:18;28.20;48.20
14705;DHT22;7442;50.840;3.396;2022-07-23T13:27:04;28.20;48.20
14705;DHT22;7442;50.840;3.396;2022-07-23T13:29:52;28.20;48.30
14705;DHT22;7442;50.840;3.396;2022-07-23T13:32:38;28.30;48.30
14705;DHT22;7442;50.840;3.396;2022-07-23T13:35:25;28.20;48.40
14705;DHT22;7442;50.840;3.396;2022-07-23T13:38:11;28.20;48.50
14705;DHT22;7442;50.840;3.396;2022-07-23T13:40:58;28.20;48.40
14705;DHT22;7442;50.840;3.396;2022-07-23T13:43:44;28.30;48.30
14705;DHT22;7442;50.840;3.396;2022-07-23T13:46:30;28.30;48.20
14705;DHT22;7442;50.840;3.396;2022-07-23T13:49:17;28.30;48.30
14705;DHT22;7442;50.840;3.396;2022-07-23T13:52:04;28.30;48.40
14705;DHT22;7442;50.840;3.396;2022-07-23T13:54:50;28.30;48.40
14705;DHT22;7442;50.840;3.396;2022-07-23T13:57:37;28.20;48.50
14705;DHT22;7442;50.840;3.396;2022-07-23T14:00:23;28.20;48.50
14705;DHT22;7442;50.840;3.396;2022-07-23T14:03:10;28.30;48.40
14705;DHT22;7442;50.840;3.396;2022-07-23T14:05:56;28.40;48.30
14705;DHT22;7442;50.840;3.396;2022-07-23T14:08:44;28.40;48.20
14705;DHT22;7442;50.840;3.396;2022-07-23T14:11:30;28.50;48.20
14705;DHT22;7442;50.840;3.396;2022-07-23T14:14:18;28.50;48.10
14705;DHT22;7442;50.840;3.396;2022-07-23T14:17:05;28.50;48.20
14705;DHT22;7442;50.840;3.396;2022-07-23T14:19:52;28.30;48.40
14705;DHT22;7442;50.840;3.396;2022-07-23T14:22:39;28.30;48.50
14705;DHT22;7442;50.840;3.396;2022-07-23T14:25:26;28.30;48.70
14705;DHT22;7442;50.840;3.396;2022-07-23T14:28:12;28.30;48.70
14705;DHT22;7442;50.840;3.396;2022-07-23T14:30:59;28.20;48.80
14705;DHT22;7442;50.840;3.396;2022-07-23T14:33:45;28.20;48.80
14705;DHT22;7442;50.840;3.396;2022-07-23T14:36:38;28.30;48.80
14705;DHT22;7442;50.840;3.396;2022-07-23T14:39:28;28.40;48.60
14705;DHT22;7442;50.840;3.396;2022-07-23T14:42:15;28.40;48.50
14705;DHT22;7442;50.840;3.396;2022-07-23T14:45:01;28.50;48.40
14705;DHT22;7442;50.840;3.396;2022-07-23T14:47:50;28.50;48.40
14705;DHT22;7442;50.840;3.396;2022-07-23T14:50:36;28.50;48.50
14705;DHT22;7442;50.840;3.396;2022-07-23T14:53:23;28.40;48.50
14705;DHT22;7442;50.840;3.396;2022-07-23T14:56:10;28.40;48.70
14705;DHT22;7442;50.840;3.396;2022-07-23T14:58:58;28.40;48.70
14705;DHT22;7442;50.840;3.396;2022-07-23T15:01:45;28.40;48.70
14705;DHT22;7442;50.840;3.396;2022-07-23T15:04:33;28.40;48.70
14705;DHT22;7442;50.840;3.396;2022-07-23T15:07:20;28.50;48.60
14705;DHT22;7442;50.840;3.396;2022-07-23T15:10:07;28.50;48.60
14705;DHT22;7442;50.840;3.396;2022-07-23T15:12:53;28.40;48.70
14705;DHT22;7442;50.840;3.396;2022-07-23T15:15:40;28.30;48.80
14705;DHT22;7442;50.840;3.396;2022-07-23T15:18:26;28.30;48.80
14705;DHT22;7442;50.840;3.396;2022-07-23T15:21:13;28.30;48.90
14705;DHT22;7442;50.840;3.396;2022-07-23T15:23:59;28.30;48.90
14705;DHT22;7442;50.840;3.396;2022-07-23T15:26:46;28.40;48.70
14705;DHT22;7442;50.840;3.396;2022-07-23T15:29:32;28.50;48.80
14705;DHT22;7442;50.840;3.396;2022-07-23T15:32:19;28.50;48.80
14705;DHT22;7442;50.840;3.396;2022-07-23T15:35:07;28.50;48.70
14705;DHT22;7442;50.840;3.396;2022-07-23T15:37:53;28.50;48.60
14705;DHT22;7442;50.840;3.396;2022-07-23T15:40:39;28.40;48.80
14705;DHT22;7442;50.840;3.396;2022-07-23T15:43:26;28.40;48.90
14705;DHT22;7442;50.840;3.396;2022-07-23T15:46:12;28.40;49.00
14705;DHT22;7442;50.840;3.396;2022-07-23T15:49:01;28.50;48.90
14705;DHT22;7442;50.840;3.396;2022-07-23T15:51:47;28.50;48.80
14705;DHT22;7442;50.840;3.396;2022-07-23T15:54:33;28.50;48.90
14705;DHT22;7442;50.840;3.396;2022-07-23T15:57:20;28.40;48.90
14705;DHT22;7442;50.840;3.396;2022-07-23T16:00:08;28.40;48.90
14705;DHT22;7442;50.840;3.396;2022-07-23T16:02:55;28.50;49.00
14705;DHT22;7442;50.840;3.396;2022-07-23T16:05:41;28.50;48.90
14705;DHT22;7442;50.840;3.396;2022-07-23T16:08:28;28.50;49.00
14705;DHT22;7442;50.840;3.396;2022-07-23T16:11:14;28.50;48.90
14705;DHT22;7442;50.840;3.396;2022-07-23T16:14:01;28.50;48.90
14705;DHT22;7442;50.840;3.396;2022-07-23T16:16:48;28.40;49.00
14705;DHT22;7442;50.840;3.396;2022-07-23T16:19:34;28.40;49.20
14705;DHT22;7442;50.840;3.396;2022-07-23T16:22:20;28.40;49.20
14705;DHT22;7442;50.840;3.396;2022-07-23T16:25:07;28.40;49.10
14705;DHT22;7442;50.840;3.396;2022-07-23T16:27:54;28.50;49.20
14705;DHT22;7442;50.840;3.396;2022-07-23T16:30:41;28.50;49.10
14705;DHT22;7442;50.840;3.396;2022-07-23T16:33:28;28.50;49.10
14705;DHT22;7442;50.840;3.396;2022-07-23T16:36:14;28.50;49.10
14705;DHT22;7442;50.840;3.396;2022-07-23T16:39:01;28.50;49.20
14705;DHT22;7442;50.840;3.396;2022-07-23T16:41:48;28.50;49.30
14705;DHT22;7442;50.840;3.396;2022-07-23T16:44:34;28.40;49.20
14705;DHT22;7442;50.840;3.396;2022-07-23T16:47:21;28.50;49.30
14705;DHT22;7442;50.840;3.396;2022-07-23T16:50:08;28.40;49.20
14705;DHT22;7442;50.840;3.396;2022-07-23T16:52:54;28.30;49.10
14705;DHT22;7442;50.840;3.396;2022-07-23T16:55:41;28.30;49.40
14705;DHT22;7442;50.840;3.396;2022-07-23T16:58:27;28.30;49.40
14705;DHT22;7442;50.840;3.396;2022-07-23T17:01:14;28.30;49.30
14705;DHT22;7442;50.840;3.396;2022-07-23T17:04:00;28.30;49.30
14705;DHT22;7442;50.840;3.396;2022-07-23T17:06:46;28.40;49.30
14705;DHT22;7442;50.840;3.396;2022-07-23T17:09:34;28.30;49.30
14705;DHT22;7442;50.840;3.396;2022-07-23T17:12:22;28.30;49.30
14705;DHT22;7442;50.840;3.396;2022-07-23T17:15:09;28.30;49.40
14705;DHT22;7442;50.840;3.396;2022-07-23T17:17:55;28.30;49.50
14705;DHT22;7442;50.840;3.396;2022-07-23T17:20:42;28.30;49.60
14705;DHT22;7442;50.840;3.396;2022-07-23T17:23:29;28.30;49.60
14705;DHT22;7442;50.840;3.396;2022-07-23T17:26:16;28.30;49.50
14705;DHT22;7442;50.840;3.396;2022-07-23T17:29:02;28.40;49.50
14705;DHT22;7442;50.840;3.396;2022-07-23T17:31:50;28.30;49.50
14705;DHT22;7442;50.840;3.396;2022-07-23T17:34:38;28.30;49.60
14705;DHT22;7442;50.840;3.396;2022-07-23T17:37:24;28.30;49.60
14705;DHT22;7442;50.840;3.396;2022-07-23T17:40:11;28.30;49.60
14705;DHT22;7442;50.840;3.396;2022-07-23T17:42:57;28.40;49.60
14705;DHT22;7442;50.840;3.396;2022-07-23T17:45:47;28.40;49.60
14705;DHT22;7442;50.840;3.396;2022-07-23T17:48:33;28.50;49.50
14705;DHT22;7442;50.840;3.396;2022-07-23T17:51:20;28.40;49.60
14705;DHT22;7442;50.840;3.396;2022-07-23T17:54:07;28.30;49.70
14705;DHT22;7442;50.840;3.396;2022-07-23T17:57:01;28.30;49.70
14705;DHT22;7442;50.840;3.396;2022-07-23T17:59:48;28.30;49.80
14705;DHT22;7442;50.840;3.396;2022-07-23T18:02:35;28.30;49.80
14705;DHT22;7442;50.840;3.396;2022-07-23T18:05:22;28.30;49.60
14705;DHT22;7442;50.840;3.396;2022-07-23T18:08:09;28.40;49.60
14705;DHT22;7442;50.840;3.396;2022-07-23T18:10:56;28.40;49.70
14705;DHT22;7442;50.840;3.396;2022-07-23T18:13:42;28.30;49.70
14705;DHT22;7442;50.840;3.396;2022-07-23T18:16:28;28.30;49.70
14705;DHT22;7442;50.840;3.396;2022-07-23T18:19:14;28.40;49.70
14705;DHT22;7442;50.840;3.396;2022-07-23T18:22:00;28.50;49.60